sensor_id;sensor_type;location;lat;lon;timestamp;pressure;altitude;pressure_sealevel;temperature;humidity
62703;BME280;66022;50.448;18.122;2023-03-16T00:02:50;99498.52;;;0.73;74.50
62703;BME280;66022;50.448;18.122;2023-03-16T00:06:54;99500.38;;;0.67;76.74
62703;BME280;66022;50.448;18.122;2023-03-16T00:10:58;99502.95;;;0.63;74.66
62703;BME280;66022;50.448;18.122;2023-03-16T00:15:02;99506.17;;;0.58;74.64
62703;BME280;66022;50.448;18.122;2023-03-16T00:19:06;99509.28;;;0.54;75.24
62703;BME280;66022;50.448;18.122;2023-03-16T00:23:10;99512.92;;;0.50;74.79
62703;BME280;66022;50.448;18.122;2023-03-16T00:27:14;99515.11;;;0.45;77.18
62703;BME280;66022;50.448;18.122;2023-03-16T00:31:18;99516.42;;;0.40;75.74
62703;BME280;66022;50.448;18.122;2023-03-16T00:35:21;99517.70;;;0.35;75.67
62703;BME280;66022;50.448;18.122;2023-03-16T00:39:25;99519.98;;;0.33;75.89
62703;BME280;66022;50.448;18.122;2023-03-16T00:43:30;99522.37;;;0.32;75.52
62703;BME280;66022;50.448;18.122;2023-03-16T00:47:34;99524.44;;;0.29;76.92
62703;BME280;66022;50.448;18.122;2023-03-16T00:51:38;99526.25;;;0.28;75.58
62703;BME280;66022;50.448;18.122;2023-03-16T00:55:42;99527.66;;;0.25;77.22
62703;BME280;66022;50.448;18.122;2023-03-16T00:59:46;99530.17;;;0.24;75.95
62703;BME280;66022;50.448;18.122;2023-03-16T01:03:50;99531.78;;;0.22;75.68
62703;BME280;66022;50.448;18.122;2023-03-16T01:07:54;99532.36;;;0.18;76.25
62703;BME280;66022;50.448;18.122;2023-03-16T01:11:58;99533.38;;;0.19;75.38
62703;BME280;66022;50.448;18.122;2023-03-16T01:16:02;99534.50;;;0.15;79.69
62703;BME280;66022;50.448;18.122;2023-03-16T01:20:06;99536.49;;;0.15;75.76
62703;BME280;66022;50.448;18.122;2023-03-16T01:24:10;99539.03;;;0.14;75.74
62703;BME280;66022;50.448;18.122;2023-03-16T01:28:13;99541.22;;;0.09;76.38
62703;BME280;66022;50.448;18.122;2023-03-16T01:32:17;99544.03;;;0.09;75.79
62703;BME280;66022;50.448;18.122;2023-03-16T01:36:22;99545.95;;;0.03;80.10
62703;BME280;66022;50.448;18.122;2023-03-16T01:40:26;99547.19;;;0.03;75.98
62703;BME280;66022;50.448;18.122;2023-03-16T01:44:48;99548.85;;;0.03;75.51
62703;BME280;66022;50.448;18.122;2023-03-16T01:48:41;99550.94;;;0.00;76.56
62703;BME280;66022;50.448;18.122;2023-03-16T01:52:38;99553.13;;;-0.01;75.41
62703;BME280;66022;50.448;18.122;2023-03-16T02:00:45;99558.65;;;-0.05;75.89
62703;BME280;66022;50.448;18.122;2023-03-16T02:08:53;99562.97;;;-0.10;76.37
62703;BME280;66022;50.448;18.122;2023-03-16T02:12:58;99565.45;;;-0.11;75.79
62703;BME280;66022;50.448;18.122;2023-03-16T02:17:01;99567.96;;;-0.12;78.16
62703;BME280;66022;50.448;18.122;2023-03-16T02:25:10;99572.20;;;-0.15;75.87
62703;BME280;66022;50.448;18.122;2023-03-16T02:33:18;99577.85;;;-0.17;75.78
62703;BME280;66022;50.448;18.122;2023-03-16T02:37:21;99581.44;;;-0.19;77.64
62703;BME280;66022;50.448;18.122;2023-03-16T02:41:26;99584.78;;;-0.20;76.14
62703;BME280;66022;50.448;18.122;2023-03-16T02:45:32;99588.23;;;-0.23;76.34
62703;BME280;66022;50.448;18.122;2023-03-16T02:49:37;99592.60;;;-0.27;76.71
62703;BME280;66022;50.448;18.122;2023-03-16T02:53:38;99596.83;;;-0.30;76.70
62703;BME280;66022;50.448;18.122;2023-03-16T02:57:42;99601.23;;;-0.35;78.20
62703;BME280;66022;50.448;18.122;2023-03-16T03:01:46;99604.69;;;-0.38;76.79
62703;BME280;66022;50.448;18.122;2023-03-16T03:05:50;99607.89;;;-0.42;79.95
62703;BME280;66022;50.448;18.122;2023-03-16T03:09:54;99610.52;;;-0.42;77.17
62703;BME280;66022;50.448;18.122;2023-03-16T03:13:58;99613.08;;;-0.43;76.31
62703;BME280;66022;50.448;18.122;2023-03-16T03:18:02;99616.77;;;-0.46;77.97
62703;BME280;66022;50.448;18.122;2023-03-16T03:22:06;99619.71;;;-0.44;76.81
62703;BME280;66022;50.448;18.122;2023-03-16T03:26:10;99623.83;;;-0.47;80.68
62703;BME280;66022;50.448;18.122;2023-03-16T03:30:17;99626.59;;;-0.46;76.42
62703;BME280;66022;50.448;18.122;2023-03-16T03:34:18;99629.81;;;-0.46;76.09
62703;BME280;66022;50.448;18.122;2023-03-16T03:38:22;99633.64;;;-0.48;76.82
62703;BME280;66022;50.448;18.122;2023-03-16T03:42:26;99637.75;;;-0.45;75.96
62703;BME280;66022;50.448;18.122;2023-03-16T03:46:32;99641.17;;;-0.44;78.86
62703;BME280;66022;50.448;18.122;2023-03-16T03:50:38;99643.77;;;-0.37;75.16
62703;BME280;66022;50.448;18.122;2023-03-16T03:54:38;99646.58;;;-0.30;74.87
62703;BME280;66022;50.448;18.122;2023-03-16T03:58:42;99648.86;;;-0.26;75.33
62703;BME280;66022;50.448;18.122;2023-03-16T04:02:46;99651.12;;;-0.21;74.61
62703;BME280;66022;50.448;18.122;2023-03-16T04:06:50;99652.91;;;-0.20;76.91
62703;BME280;66022;50.448;18.122;2023-03-16T04:10:54;99654.60;;;-0.18;75.22
62703;BME280;66022;50.448;18.122;2023-03-16T04:14:58;99656.34;;;-0.18;75.17
62703;BME280;66022;50.448;18.122;2023-03-16T04:19:02;99657.86;;;-0.20;76.21
62703;BME280;66022;50.448;18.122;2023-03-16T04:23:06;99659.92;;;-0.20;75.23
62703;BME280;66022;50.448;18.122;2023-03-16T04:27:10;99663.50;;;-0.22;77.19
62703;BME280;66022;50.448;18.122;2023-03-16T04:31:14;99666.44;;;-0.23;75.70
62703;BME280;66022;50.448;18.122;2023-03-16T04:35:18;99669.76;;;-0.26;75.59
62703;BME280;66022;50.448;18.122;2023-03-16T04:39:22;99671.80;;;-0.30;76.10
62703;BME280;66022;50.448;18.122;2023-03-16T04:43:26;99673.93;;;-0.33;75.90
62703;BME280;66022;50.448;18.122;2023-03-16T04:47:30;99676.95;;;-0.37;77.29
62703;BME280;66022;50.448;18.122;2023-03-16T04:51:35;99680.41;;;-0.41;76.00
62703;BME280;66022;50.448;18.122;2023-03-16T04:55:38;99684.09;;;-0.45;76.16
62703;BME280;66022;50.448;18.122;2023-03-16T04:59:42;99688.20;;;-0.48;76.54
62703;BME280;66022;50.448;18.122;2023-03-16T05:03:46;99691.82;;;-0.51;76.28
62703;BME280;66022;50.448;18.122;2023-03-16T05:07:50;99695.36;;;-0.56;77.50
62703;BME280;66022;50.448;18.122;2023-03-16T05:11:54;99699.64;;;-0.57;76.21
62703;BME280;66022;50.448;18.122;2023-03-16T05:15:58;99703.82;;;-0.62;80.02
62703;BME280;66022;50.448;18.122;2023-03-16T05:20:02;99709.27;;;-0.61;76.86
62703;BME280;66022;50.448;18.122;2023-03-16T05:24:07;99713.98;;;-0.61;76.43
62703;BME280;66022;50.448;18.122;2023-03-16T05:28:10;99718.72;;;-0.66;77.86
62703;BME280;66022;50.448;18.122;2023-03-16T05:32:14;99722.75;;;-0.63;77.06
62703;BME280;66022;50.448;18.122;2023-03-16T05:36:18;99725.81;;;-0.63;81.55
62703;BME280;66022;50.448;18.122;2023-03-16T05:40:22;99729.44;;;-0.57;77.31
62703;BME280;66022;50.448;18.122;2023-03-16T05:44:26;99733.08;;;-0.52;76.98
62703;BME280;66022;50.448;18.122;2023-03-16T05:48:30;99735.67;;;-0.47;77.78
62703;BME280;66022;50.448;18.122;2023-03-16T05:52:34;99738.98;;;-0.39;77.36
62703;BME280;66022;50.448;18.122;2023-03-16T05:56:38;99741.30;;;-0.32;80.21
62703;BME280;66022;50.448;18.122;2023-03-16T06:00:42;99744.51;;;-0.22;77.07
62703;BME280;66022;50.448;18.122;2023-03-16T06:04:46;99747.52;;;-0.11;76.69
62703;BME280;66022;50.448;18.122;2023-03-16T06:08:50;99749.81;;;-0.01;77.47
62703;BME280;66022;50.448;18.122;2023-03-16T06:12:54;99752.52;;;0.13;76.42
62703;BME280;66022;50.448;18.122;2023-03-16T06:16:58;99755.94;;;0.27;78.08
62703;BME280;66022;50.448;18.122;2023-03-16T06:21:02;99759.94;;;0.44;76.34
62703;BME280;66022;50.448;18.122;2023-03-16T06:25:07;99763.73;;;0.60;75.87
62703;BME280;66022;50.448;18.122;2023-03-16T06:29:10;99767.30;;;0.75;76.17
62703;BME280;66022;50.448;18.122;2023-03-16T06:33:14;99769.33;;;0.91;75.14
62703;BME280;66022;50.448;18.122;2023-03-16T06:37:18;99772.30;;;1.04;76.43
62703;BME280;66022;50.448;18.122;2023-03-16T06:41:22;99776.50;;;1.21;74.68
62703;BME280;66022;50.448;18.122;2023-03-16T06:45:26;99780.25;;;1.36;74.29
62703;BME280;66022;50.448;18.122;2023-03-16T06:49:30;99784.53;;;1.54;74.39
62703;BME280;66022;50.448;18.122;2023-03-16T06:53:34;99788.50;;;1.72;74.11
62703;BME280;66022;50.448;18.122;2023-03-16T06:57:38;99792.46;;;1.95;73.17
62703;BME280;66022;50.448;18.122;2023-03-16T07:01:42;99795.40;;;2.37;69.46
62703;BME280;66022;50.448;18.122;2023-03-16T07:05:46;99799.33;;;2.85;68.55
62703;BME280;66022;50.448;18.122;2023-03-16T07:09:50;99802.66;;;3.41;66.78
62703;BME280;66022;50.448;18.122;2023-03-16T07:13:54;99805.75;;;4.01;64.90
62703;BME280;66022;50.448;18.122;2023-03-16T07:17:58;99809.39;;;4.56;62.19
62703;BME280;66022;50.448;18.122;2023-03-16T07:22:02;99810.90;;;5.14;61.74
62703;BME280;66022;50.448;18.122;2023-03-16T07:26:06;99813.59;;;5.61;59.78
62703;BME280;66022;50.448;18.122;2023-03-16T07:30:10;99813.40;;;6.12;59.63
62703;BME280;66022;50.448;18.122;2023-03-16T07:34:14;99813.90;;;6.60;58.78
62703;BME280;66022;50.448;18.122;2023-03-16T07:38:18;99815.24;;;6.93;58.89
62703;BME280;66022;50.448;18.122;2023-03-16T07:42:22;99816.67;;;7.37;57.22
62703;BME280;66022;50.448;18.122;2023-03-16T07:46:26;99817.05;;;7.73;55.44
62703;BME280;66022;50.448;18.122;2023-03-16T07:50:30;99817.88;;;8.14;56.03
62703;BME280;66022;50.448;18.122;2023-03-16T07:54:34;99817.25;;;8.54;55.20
62703;BME280;66022;50.448;18.122;2023-03-16T07:58:38;99817.38;;;8.87;56.41
62703;BME280;66022;50.448;18.122;2023-03-16T08:02:42;99816.66;;;9.30;53.52
62703;BME280;66022;50.448;18.122;2023-03-16T08:06:46;99817.24;;;9.61;53.66
62703;BME280;66022;50.448;18.122;2023-03-16T08:10:50;99818.50;;;9.94;53.18
62703;BME280;66022;50.448;18.122;2023-03-16T08:19:06;99821.42;;;10.47;52.05
62703;BME280;66022;50.448;18.122;2023-03-16T08:23:03;99823.05;;;10.64;53.09
62703;BME280;66022;50.448;18.122;2023-03-16T08:27:07;99825.66;;;10.71;51.22
62703;BME280;66022;50.448;18.122;2023-03-16T08:31:11;99828.27;;;10.77;52.62
62703;BME280;66022;50.448;18.122;2023-03-16T08:35:14;99832.18;;;10.74;52.29
62703;BME280;66022;50.448;18.122;2023-03-16T08:39:18;99835.72;;;10.66;53.05
62703;BME280;66022;50.448;18.122;2023-03-16T08:43:22;99838.84;;;10.65;52.82
62703;BME280;66022;50.448;18.122;2023-03-16T08:47:26;99840.26;;;10.66;52.45
62703;BME280;66022;50.448;18.122;2023-03-16T08:51:30;99843.45;;;10.65;53.66
62703;BME280;66022;50.448;18.122;2023-03-16T08:55:34;99846.66;;;10.65;52.53
62703;BME280;66022;50.448;18.122;2023-03-16T08:59:38;99851.12;;;10.69;52.25
62703;BME280;66022;50.448;18.122;2023-03-16T09:03:42;99854.38;;;10.86;51.49
62703;BME280;66022;50.448;18.122;2023-03-16T09:07:46;99855.66;;;11.02;50.14
62703;BME280;66022;50.448;18.122;2023-03-16T09:11:50;99857.09;;;11.18;50.91
62703;BME280;66022;50.448;18.122;2023-03-16T09:15:54;99857.98;;;11.32;45.62
62703;BME280;66022;50.448;18.122;2023-03-16T09:19:58;99860.69;;;11.29;50.34
62703;BME280;66022;50.448;18.122;2023-03-16T09:24:02;99863.70;;;11.20;52.07
62703;BME280;66022;50.448;18.122;2023-03-16T09:28:06;99865.58;;;11.08;51.20
62703;BME280;66022;50.448;18.122;2023-03-16T09:32:11;99867.77;;;11.02;52.91
62703;BME280;66022;50.448;18.122;2023-03-16T09:36:14;99869.67;;;10.98;48.57
62703;BME280;66022;50.448;18.122;2023-03-16T09:40:22;99870.03;;;11.09;50.33
62703;BME280;66022;50.448;18.122;2023-03-16T09:44:25;99870.79;;;11.19;51.16
62703;BME280;66022;50.448;18.122;2023-03-16T09:48:26;99870.94;;;11.04;51.73
62703;BME280;66022;50.448;18.122;2023-03-16T09:56:36;99873.89;;;11.14;49.25
62703;BME280;66022;50.448;18.122;2023-03-16T10:00:40;99874.61;;;11.17;50.36
62703;BME280;66022;50.448;18.122;2023-03-16T10:04:46;99875.86;;;11.12;51.28
62703;BME280;66022;50.448;18.122;2023-03-16T10:12:51;99874.89;;;11.04;50.48
62703;BME280;66022;50.448;18.122;2023-03-16T10:16:59;99874.75;;;11.08;48.86
62703;BME280;66022;50.448;18.122;2023-03-16T10:20:58;99876.07;;;11.20;48.23
62703;BME280;66022;50.448;18.122;2023-03-16T10:29:10;99874.61;;;11.40;45.67
62703;BME280;66022;50.448;18.122;2023-03-16T10:37:14;99876.85;;;10.94;48.71
62703;BME280;66022;50.448;18.122;2023-03-16T10:41:22;99878.20;;;10.76;49.56
62703;BME280;66022;50.448;18.122;2023-03-16T10:45:23;99880.38;;;10.62;49.08
62703;BME280;66022;50.448;18.122;2023-03-16T10:49:27;99881.62;;;10.56;46.44
62703;BME280;66022;50.448;18.122;2023-03-16T10:53:30;99883.04;;;10.66;46.22
62703;BME280;66022;50.448;18.122;2023-03-16T10:57:35;99884.25;;;10.82;45.39
62703;BME280;66022;50.448;18.122;2023-03-16T11:01:38;99883.90;;;11.04;44.71
62703;BME280;66022;50.448;18.122;2023-03-16T11:05:43;99884.42;;;11.02;44.04
62703;BME280;66022;50.448;18.122;2023-03-16T11:09:47;99885.27;;;10.94;47.02
62703;BME280;66022;50.448;18.122;2023-03-16T11:13:54;99884.99;;;10.84;47.70
62703;BME280;66022;50.448;18.122;2023-03-16T11:17:54;99885.63;;;10.86;45.33
62703;BME280;66022;50.448;18.122;2023-03-16T11:22:09;99885.90;;;11.04;45.02
62703;BME280;66022;50.448;18.122;2023-03-16T11:26:03;99885.30;;;11.22;40.07
62703;BME280;66022;50.448;18.122;2023-03-16T11:34:14;99884.03;;;11.71;41.69
62703;BME280;66022;50.448;18.122;2023-03-16T11:46:26;99877.61;;;12.16;37.88
62703;BME280;66022;50.448;18.122;2023-03-16T11:54:37;99874.01;;;12.45;41.23
62703;BME280;66022;50.448;18.122;2023-03-16T11:58:38;99872.74;;;12.54;38.77
62703;BME280;66022;50.448;18.122;2023-03-16T12:15:02;99864.90;;;12.74;38.50
62703;BME280;66022;50.448;18.122;2023-03-16T12:18:57;99862.28;;;12.67;37.84
62703;BME280;66022;50.448;18.122;2023-03-16T12:23:02;99857.97;;;12.59;39.27
62703;BME280;66022;50.448;18.122;2023-03-16T12:27:03;99856.57;;;12.41;40.99
62703;BME280;66022;50.448;18.122;2023-03-16T12:59:38;99851.33;;;11.27;37.96
62703;BME280;66022;50.448;18.122;2023-03-16T13:03:39;99849.05;;;11.12;40.13
62703;BME280;66022;50.448;18.122;2023-03-16T13:07:46;99847.38;;;10.99;40.09
62703;BME280;66022;50.448;18.122;2023-03-16T13:11:47;99845.78;;;10.93;41.93
62703;BME280;66022;50.448;18.122;2023-03-16T13:16:00;99843.44;;;10.86;36.08
62703;BME280;66022;50.448;18.122;2023-03-16T13:24:43;99840.94;;;10.71;41.72
62703;BME280;66022;50.448;18.122;2023-03-16T13:28:04;99839.97;;;10.56;41.34
62703;BME280;66022;50.448;18.122;2023-03-16T13:32:07;99840.23;;;10.47;41.15
62703;BME280;66022;50.448;18.122;2023-03-16T13:36:10;99840.24;;;10.30;36.27
62703;BME280;66022;50.448;18.122;2023-03-16T13:40:18;99839.65;;;10.24;41.89
62703;BME280;66022;50.448;18.122;2023-03-16T13:44:18;99840.19;;;10.23;40.96
62703;BME280;66022;50.448;18.122;2023-03-16T13:48:23;99839.89;;;10.17;41.37
62703;BME280;66022;50.448;18.122;2023-03-16T13:52:33;99839.56;;;10.18;41.71
62703;BME280;66022;50.448;18.122;2023-03-16T13:56:30;99839.42;;;10.15;39.00
62703;BME280;66022;50.448;18.122;2023-03-16T14:00:35;99839.56;;;10.18;41.76
62703;BME280;66022;50.448;18.122;2023-03-16T14:04:38;99839.01;;;10.20;41.17
62703;BME280;66022;50.448;18.122;2023-03-16T14:08:44;99838.36;;;10.19;38.57
62703;BME280;66022;50.448;18.122;2023-03-16T14:16:51;99837.66;;;10.08;38.31
62703;BME280;66022;50.448;18.122;2023-03-16T14:20:55;99836.91;;;10.00;40.37
62703;BME280;66022;50.448;18.122;2023-03-16T14:24:59;99836.61;;;9.94;42.51
62703;BME280;66022;50.448;18.122;2023-03-16T14:33:21;99835.02;;;9.79;42.10
62703;BME280;66022;50.448;18.122;2023-03-16T14:37:11;99834.41;;;9.71;42.10
62703;BME280;66022;50.448;18.122;2023-03-16T14:41:24;99833.59;;;9.69;42.41
62703;BME280;66022;50.448;18.122;2023-03-16T14:45:19;99834.11;;;9.69;42.42
62703;BME280;66022;50.448;18.122;2023-03-16T14:49:26;99833.29;;;9.65;42.07
62703;BME280;66022;50.448;18.122;2023-03-16T14:53:27;99832.32;;;9.61;42.43
62703;BME280;66022;50.448;18.122;2023-03-16T14:57:31;99831.37;;;9.54;41.13
62703;BME280;66022;50.448;18.122;2023-03-16T15:01:35;99830.14;;;9.50;41.51
62703;BME280;66022;50.448;18.122;2023-03-16T15:05:40;99829.11;;;9.44;41.74
62703;BME280;66022;50.448;18.122;2023-03-16T15:09:42;99828.18;;;9.37;41.70
62703;BME280;66022;50.448;18.122;2023-03-16T15:13:47;99829.41;;;9.29;43.56
62703;BME280;66022;50.448;18.122;2023-03-16T15:17:50;99829.33;;;9.18;43.15
62703;BME280;66022;50.448;18.122;2023-03-16T15:21:54;99831.73;;;9.11;42.82
62703;BME280;66022;50.448;18.122;2023-03-16T15:25:59;99832.33;;;8.99;40.00
62703;BME280;66022;50.448;18.122;2023-03-16T15:30:05;99831.20;;;8.90;43.91
62703;BME280;66022;50.448;18.122;2023-03-16T15:34:06;99831.16;;;8.83;45.10
62703;BME280;66022;50.448;18.122;2023-03-16T15:38:17;99829.77;;;8.72;44.59
62703;BME280;66022;50.448;18.122;2023-03-16T15:42:15;99829.30;;;8.67;44.48
62703;BME280;66022;50.448;18.122;2023-03-16T15:46:18;99829.54;;;8.56;41.38
62703;BME280;66022;50.448;18.122;2023-03-16T15:50:22;99830.58;;;8.51;45.12
62703;BME280;66022;50.448;18.122;2023-03-16T15:54:26;99831.50;;;8.44;44.51
62703;BME280;66022;50.448;18.122;2023-03-16T15:58:31;99832.28;;;8.32;43.96
62703;BME280;66022;50.448;18.122;2023-03-16T16:02:35;99833.91;;;8.24;45.72
62703;BME280;66022;50.448;18.122;2023-03-16T16:06:39;99835.28;;;8.14;45.42
62703;BME280;66022;50.448;18.122;2023-03-16T16:10:43;99836.06;;;8.06;45.31
62703;BME280;66022;50.448;18.122;2023-03-16T16:14:46;99838.19;;;7.98;46.25
62703;BME280;66022;50.448;18.122;2023-03-16T16:18:50;99840.44;;;7.86;45.97
62703;BME280;66022;50.448;18.122;2023-03-16T16:22:55;99842.66;;;7.77;46.97
62703;BME280;66022;50.448;18.122;2023-03-16T16:26:59;99844.82;;;7.66;47.33
62703;BME280;66022;50.448;18.122;2023-03-16T16:31:07;99846.92;;;7.56;48.03
62703;BME280;66022;50.448;18.122;2023-03-16T16:39:11;99854.04;;;7.35;48.63
62703;BME280;66022;50.448;18.122;2023-03-16T16:43:26;99857.12;;;7.26;48.99
62703;BME280;66022;50.448;18.122;2023-03-16T16:47:19;99859.95;;;7.15;49.30
62703;BME280;66022;50.448;18.122;2023-03-16T16:51:24;99862.13;;;7.04;50.17
62703;BME280;66022;50.448;18.122;2023-03-16T16:55:27;99865.17;;;6.92;49.78
62703;BME280;66022;50.448;18.122;2023-03-16T16:59:32;99867.05;;;6.79;50.12
62703;BME280;66022;50.448;18.122;2023-03-16T17:03:35;99868.03;;;6.67;49.97
62703;BME280;66022;50.448;18.122;2023-03-16T17:07:39;99870.06;;;6.55;49.46
62703;BME280;66022;50.448;18.122;2023-03-16T17:11:43;99871.04;;;6.45;50.39
62703;BME280;66022;50.448;18.122;2023-03-16T17:15:47;99872.65;;;6.31;49.57
62703;BME280;66022;50.448;18.122;2023-03-16T17:19:51;99875.42;;;6.21;50.76
62703;BME280;66022;50.448;18.122;2023-03-16T17:24:00;99876.29;;;6.11;51.29
62703;BME280;66022;50.448;18.122;2023-03-16T17:32:06;99876.56;;;5.92;52.41
62703;BME280;66022;50.448;18.122;2023-03-16T17:36:08;99877.56;;;5.79;53.61
62703;BME280;66022;50.448;18.122;2023-03-16T17:40:15;99877.84;;;5.71;53.04
62703;BME280;66022;50.448;18.122;2023-03-16T17:44:15;99879.42;;;5.60;53.87
62703;BME280;66022;50.448;18.122;2023-03-16T17:48:20;99880.75;;;5.39;54.93
62703;BME280;66022;50.448;18.122;2023-03-16T17:52:24;99883.21;;;5.27;54.99
62703;BME280;66022;50.448;18.122;2023-03-16T17:56:27;99886.30;;;5.10;56.46
62703;BME280;66022;50.448;18.122;2023-03-16T18:00:32;99888.75;;;4.97;55.72
62703;BME280;66022;50.448;18.122;2023-03-16T18:04:35;99891.50;;;4.81;56.05
62703;BME280;66022;50.448;18.122;2023-03-16T18:08:39;99892.95;;;4.63;56.13
62703;BME280;66022;50.448;18.122;2023-03-16T18:12:43;99896.45;;;4.50;55.32
62703;BME280;66022;50.448;18.122;2023-03-16T18:16:47;99900.20;;;4.36;55.52
62703;BME280;66022;50.448;18.122;2023-03-16T18:20:51;99901.81;;;4.27;54.94
62703;BME280;66022;50.448;18.122;2023-03-16T18:24:55;99904.35;;;4.18;55.67
62703;BME280;66022;50.448;18.122;2023-03-16T18:28:59;99907.15;;;4.09;55.00
62703;BME280;66022;50.448;18.122;2023-03-16T18:33:04;99908.80;;;4.03;56.12
62703;BME280;66022;50.448;18.122;2023-03-16T18:37:11;99909.91;;;3.93;57.30
62703;BME280;66022;50.448;18.122;2023-03-16T18:41:13;99911.75;;;3.84;57.40
62703;BME280;66022;50.448;18.122;2023-03-16T18:45:15;99912.80;;;3.70;57.17
62703;BME280;66022;50.448;18.122;2023-03-16T18:49:22;99914.18;;;3.53;57.75
62703;BME280;66022;50.448;18.122;2023-03-16T18:53:23;99914.14;;;3.40;57.36
62703;BME280;66022;50.448;18.122;2023-03-16T18:57:27;99914.43;;;3.30;57.40
62703;BME280;66022;50.448;18.122;2023-03-16T19:01:31;99915.50;;;3.25;57.22
62703;BME280;66022;50.448;18.122;2023-03-16T19:05:35;99916.67;;;3.20;56.62
62703;BME280;66022;50.448;18.122;2023-03-16T19:09:39;99918.07;;;3.15;57.57
62703;BME280;66022;50.448;18.122;2023-03-16T19:13:43;99918.58;;;3.10;56.71
62703;BME280;66022;50.448;18.122;2023-03-16T19:17:47;99919.89;;;3.06;57.68
62703;BME280;66022;50.448;18.122;2023-03-16T19:21:51;99921.44;;;3.04;57.67
62703;BME280;66022;50.448;18.122;2023-03-16T19:25:55;99922.37;;;2.96;59.33
62703;BME280;66022;50.448;18.122;2023-03-16T19:29:59;99924.73;;;2.93;58.03
62703;BME280;66022;50.448;18.122;2023-03-16T19:34:04;99927.08;;;2.90;58.45
62703;BME280;66022;50.448;18.122;2023-03-16T19:38:07;99929.30;;;2.77;59.37
62703;BME280;66022;50.448;18.122;2023-03-16T19:46:15;99932.90;;;2.61;60.95
62703;BME280;66022;50.448;18.122;2023-03-16T19:50:20;99934.41;;;2.58;59.02
62703;BME280;66022;50.448;18.122;2023-03-16T19:54:26;99934.74;;;2.54;59.33
62703;BME280;66022;50.448;18.122;2023-03-16T19:58:30;99935.58;;;2.46;59.55
62703;BME280;66022;50.448;18.122;2023-03-16T20:06:35;99935.46;;;2.38;60.73
62703;BME280;66022;50.448;18.122;2023-03-16T20:10:39;99934.76;;;2.36;59.79
62703;BME280;66022;50.448;18.122;2023-03-16T20:14:43;99933.54;;;2.33;59.81
62703;BME280;66022;50.448;18.122;2023-03-16T20:18:47;99931.77;;;2.28;59.96
62703;BME280;66022;50.448;18.122;2023-03-16T20:22:54;99930.78;;;2.25;60.35
62703;BME280;66022;50.448;18.122;2023-03-16T20:26:55;99930.36;;;2.17;62.13
62703;BME280;66022;50.448;18.122;2023-03-16T20:30:59;99930.31;;;2.11;61.46
62703;BME280;66022;50.448;18.122;2023-03-16T20:35:05;99931.23;;;2.08;61.65
62703;BME280;66022;50.448;18.122;2023-03-16T20:39:07;99930.86;;;2.05;61.10
62703;BME280;66022;50.448;18.122;2023-03-16T20:47:15;99930.19;;;2.05;60.47
62703;BME280;66022;50.448;18.122;2023-03-16T20:51:19;99931.89;;;2.08;59.82
62703;BME280;66022;50.448;18.122;2023-03-16T20:55:24;99933.54;;;2.07;60.61
62703;BME280;66022;50.448;18.122;2023-03-16T20:59:27;99935.42;;;2.02;61.31
62703;BME280;66022;50.448;18.122;2023-03-16T21:03:31;99936.53;;;1.99;60.63
62703;BME280;66022;50.448;18.122;2023-03-16T21:07:35;99936.78;;;1.96;61.07
62703;BME280;66022;50.448;18.122;2023-03-16T21:11:40;99937.35;;;1.96;60.58
62703;BME280;66022;50.448;18.122;2023-03-16T21:15:43;99937.97;;;1.93;60.50
62703;BME280;66022;50.448;18.122;2023-03-16T21:19:47;99939.51;;;1.93;60.29
62703;BME280;66022;50.448;18.122;2023-03-16T21:23:51;99941.58;;;1.92;60.67
62703;BME280;66022;50.448;18.122;2023-03-16T21:27:56;99941.86;;;1.87;60.75
62703;BME280;66022;50.448;18.122;2023-03-16T21:31:59;99941.57;;;1.85;60.74
62703;BME280;66022;50.448;18.122;2023-03-16T21:36:05;99939.77;;;1.79;61.64
62703;BME280;66022;50.448;18.122;2023-03-16T21:44:11;99934.92;;;1.77;60.49
62703;BME280;66022;50.448;18.122;2023-03-16T21:56:24;99925.80;;;1.70;63.81
62703;BME280;66022;50.448;18.122;2023-03-16T22:00:31;99924.10;;;1.68;61.88
62703;BME280;66022;50.448;18.122;2023-03-16T22:04:38;99923.22;;;1.66;61.74
62703;BME280;66022;50.448;18.122;2023-03-16T22:08:39;99919.83;;;1.67;61.57
62703;BME280;66022;50.448;18.122;2023-03-16T22:12:40;99915.81;;;1.71;61.29
62703;BME280;66022;50.448;18.122;2023-03-16T22:16:43;99913.97;;;1.74;61.68
62703;BME280;66022;50.448;18.122;2023-03-16T22:20:47;99910.86;;;1.80;60.53
62703;BME280;66022;50.448;18.122;2023-03-16T22:24:51;99909.42;;;1.82;60.97
62703;BME280;66022;50.448;18.122;2023-03-16T22:28:55;99908.29;;;1.80;61.44
62703;BME280;66022;50.448;18.122;2023-03-16T22:32:59;99906.72;;;1.78;61.54
62703;BME280;66022;50.448;18.122;2023-03-16T22:37:03;99904.72;;;1.71;62.40
62703;BME280;66022;50.448;18.122;2023-03-16T22:41:09;99903.05;;;1.65;61.96
62703;BME280;66022;50.448;18.122;2023-03-16T22:45:20;99901.26;;;1.58;62.34
62703;BME280;66022;50.448;18.122;2023-03-16T22:49:25;99899.63;;;1.52;62.35
62703;BME280;66022;50.448;18.122;2023-03-16T22:53:21;99897.80;;;1.48;62.01
62703;BME280;66022;50.448;18.122;2023-03-16T22:57:23;99897.45;;;1.42;62.99
62703;BME280;66022;50.448;18.122;2023-03-16T23:01:29;99897.47;;;1.35;63.06
62703;BME280;66022;50.448;18.122;2023-03-16T23:05:31;99898.78;;;1.28;63.11
62703;BME280;66022;50.448;18.122;2023-03-16T23:09:35;99902.95;;;1.24;62.80
62703;BME280;66022;50.448;18.122;2023-03-16T23:13:40;99905.95;;;1.20;62.87
62703;BME280;66022;50.448;18.122;2023-03-16T23:17:43;99908.47;;;1.16;63.88
62703;BME280;66022;50.448;18.122;2023-03-16T23:21:47;99907.58;;;1.13;63.69
62703;BME280;66022;50.448;18.122;2023-03-16T23:25:51;99906.31;;;1.06;65.50
62703;BME280;66022;50.448;18.122;2023-03-16T23:29:55;99907.50;;;1.03;63.28
62703;BME280;66022;50.448;18.122;2023-03-16T23:34:00;99908.61;;;1.02;63.22
62703;BME280;66022;50.448;18.122;2023-03-16T23:38:03;99909.99;;;0.95;63.79
62703;BME280;66022;50.448;18.122;2023-03-16T23:42:08;99911.80;;;0.94;63.44